createdAt,value
2019-01-04T00:00:09.697Z,37.10
2019-01-04T00:02:36.155Z,49.73
2019-01-04T00:05:05.528Z,58.98
2019-01-04T00:07:31.579Z,38.48
2019-01-04T00:09:57.681Z,35.70
2019-01-04T00:12:25.727Z,39.95
2019-01-04T00:14:51.768Z,36.95
2019-01-04T00:17:17.838Z,39.90
2019-01-04T00:19:44.029Z,34.27
2019-01-04T00:22:10.127Z,34.92
2019-01-04T00:24:36.271Z,45.17
2019-01-04T00:27:02.602Z,38.53
2019-01-04T00:29:28.613Z,43.35
2019-01-04T00:31:54.839Z,44.27
2019-01-04T00:34:21.154Z,50.65
2019-01-04T00:36:48.476Z,41.33
2019-01-04T00:39:14.536Z,38.28
2019-01-04T00:41:40.622Z,32.78
2019-01-04T00:44:06.737Z,35.00
2019-01-04T00:46:32.851Z,35.58
2019-01-04T00:48:59.058Z,36.93
2019-01-04T00:51:25.279Z,32.05
2019-01-04T00:53:51.408Z,33.55
2019-01-04T00:56:55.116Z,31.55
2019-01-04T00:59:43.569Z,30.40
2019-01-04T01:02:16.790Z,35.15
2019-01-04T01:04:52.471Z,39.75
2019-01-04T01:07:52.698Z,33.75
2019-01-04T01:10:52.884Z,37.38
2019-01-04T01:13:45.168Z,33.92
2019-01-04T01:16:49.168Z,28.87
2019-01-04T01:19:45.072Z,32.58
2019-01-04T01:22:35.064Z,35.48
2019-01-04T01:25:11.183Z,38.92
2019-01-04T01:28:01.344Z,30.10
2019-01-04T01:30:49.720Z,36.17
2019-01-04T01:33:31.109Z,36.60
2019-01-04T01:36:08.381Z,34.20
2019-01-04T01:38:57.870Z,34.15
2019-01-04T01:41:39.180Z,35.75
2019-01-04T01:44:44.460Z,34.40
2019-01-04T01:47:18.600Z,33.75
2019-01-04T01:50:00.445Z,36.55
2019-01-04T01:52:30.439Z,33.25
2019-01-04T01:54:56.610Z,32.35
2019-01-04T01:57:22.767Z,35.33
2019-01-04T01:59:48.823Z,37.10
2019-01-04T02:02:14.911Z,34.38
2019-01-04T02:04:40.941Z,30.25
2019-01-04T02:07:07.024Z,34.60
2019-01-04T02:09:33.108Z,30.97
2019-01-04T02:12:00.351Z,28.65
2019-01-04T02:14:26.424Z,27.77
2019-01-04T02:16:52.610Z,29.05
2019-01-04T02:19:18.876Z,29.07
2019-01-04T02:21:44.939Z,33.92
2019-01-04T02:24:10.982Z,31.10
2019-01-04T02:26:37.112Z,34.83
2019-01-04T02:29:03.171Z,31.07
2019-01-04T02:31:29.172Z,33.38
2019-01-04T02:33:55.291Z,35.90
2019-01-04T02:36:21.301Z,31.23
2019-01-04T02:38:47.490Z,31.68
2019-01-04T02:41:13.561Z,37.35
2019-01-04T02:43:39.751Z,32.25
2019-01-04T02:46:05.799Z,33.85
2019-01-04T02:48:31.946Z,31.68
2019-01-04T02:50:58.129Z,33.58
2019-01-04T02:53:24.212Z,30.17
2019-01-04T02:55:50.276Z,35.05
2019-01-04T02:58:16.816Z,36.20
2019-01-04T03:00:42.826Z,31.60
2019-01-04T03:03:08.863Z,32.50
2019-01-04T03:05:34.928Z,35.23
2019-01-04T03:08:01.205Z,32.17
2019-01-04T03:10:27.304Z,26.23
2019-01-04T03:12:53.374Z,27.07
2019-01-04T03:15:19.408Z,34.27
2019-01-04T03:17:45.490Z,30.25
2019-01-04T03:20:11.648Z,30.68
2019-01-04T03:22:38.875Z,36.88
2019-01-04T03:25:04.897Z,34.03
2019-01-04T03:27:30.960Z,32.90
2019-01-04T03:29:56.997Z,37.13
2019-01-04T03:32:23.169Z,30.30
2019-01-04T03:34:49.249Z,31.95
2019-01-04T03:37:15.411Z,33.92
2019-01-04T03:39:41.461Z,30.37
2019-01-04T03:42:07.519Z,35.48
2019-01-04T03:44:33.571Z,35.30
2019-01-04T03:47:00.017Z,35.48
2019-01-04T03:49:26.426Z,37.15
2019-01-04T03:51:52.539Z,33.98
2019-01-04T03:54:18.694Z,31.80
2019-01-04T03:56:44.727Z,33.35
2019-01-04T03:59:10.750Z,35.80
2019-01-04T04:01:36.766Z,33.53
2019-01-04T04:04:02.802Z,31.80
2019-01-04T04:06:28.820Z,39.13
2019-01-04T04:08:54.901Z,34.25
2019-01-04T04:11:20.915Z,33.98
2019-01-04T04:13:46.971Z,30.65
2019-01-04T04:16:12.997Z,29.98
2019-01-04T04:18:39.077Z,32.93
2019-01-04T04:21:05.054Z,39.55
2019-01-04T04:23:31.115Z,32.05
2019-01-04T04:25:57.253Z,39.42
2019-01-04T04:28:23.441Z,36.95
2019-01-04T04:30:49.559Z,35.70
2019-01-04T04:33:15.611Z,36.28
2019-01-04T04:35:41.978Z,38.17
2019-01-04T04:38:08.134Z,42.88
2019-01-04T04:40:34.500Z,36.60
2019-01-04T04:43:00.565Z,37.55
2019-01-04T04:45:26.647Z,40.90
2019-01-04T04:47:52.678Z,42.85
2019-01-04T04:50:18.722Z,34.85
2019-01-04T04:52:44.863Z,38.78
2019-01-04T04:55:10.894Z,35.13
2019-01-04T04:57:37.006Z,40.52
2019-01-04T05:00:05.417Z,36.70
2019-01-04T05:02:31.482Z,39.18
2019-01-04T05:04:57.599Z,30.97
2019-01-04T05:07:23.726Z,38.15
2019-01-04T05:09:49.856Z,42.00
2019-01-04T05:12:15.873Z,32.38
2019-01-04T05:14:44.043Z,29.87
2019-01-04T05:17:10.054Z,32.78
2019-01-04T05:19:36.116Z,41.02
2019-01-04T05:22:02.130Z,34.38
2019-01-04T05:24:29.332Z,34.53
2019-01-04T05:26:55.344Z,31.37
2019-01-04T05:29:21.379Z,38.00
2019-01-04T05:31:47.507Z,38.10
2019-01-04T05:34:13.539Z,36.60
2019-01-04T05:36:39.720Z,39.85
2019-01-04T05:39:05.885Z,37.15
2019-01-04T05:41:33.260Z,47.08
2019-01-04T05:43:59.368Z,39.67
2019-01-04T05:46:25.918Z,39.00
2019-01-04T05:48:51.968Z,37.48
2019-01-04T05:51:17.968Z,34.10
2019-01-04T05:53:44.069Z,39.73
2019-01-04T05:56:10.115Z,33.75
2019-01-04T05:58:36.205Z,31.27
2019-01-04T06:01:02.266Z,33.55
2019-01-04T06:03:28.348Z,31.68
2019-01-04T06:05:54.870Z,31.27
2019-01-04T06:08:20.942Z,31.30
2019-01-04T06:10:46.994Z,34.00
2019-01-04T06:13:13.016Z,27.60
2019-01-04T06:15:39.115Z,30.00
2019-01-04T06:18:05.104Z,36.88
2019-01-04T06:20:31.150Z,38.27
2019-01-04T06:22:58.705Z,38.40
2019-01-04T06:25:24.785Z,36.55
2019-01-04T06:27:50.857Z,34.25
2019-01-04T06:30:17.087Z,38.25
2019-01-04T06:32:43.597Z,39.00
2019-01-04T06:35:09.617Z,39.48
2019-01-04T06:37:37.766Z,38.33
2019-01-04T06:40:07.290Z,43.33
2019-01-04T06:42:33.295Z,34.23
2019-01-04T06:44:59.358Z,31.30
2019-01-04T06:47:25.428Z,34.78
2019-01-04T06:49:51.497Z,30.12
2019-01-04T06:52:17.558Z,35.58
2019-01-04T06:55:16.672Z,31.10
2019-01-04T06:57:42.742Z,32.25
2019-01-04T07:00:09.081Z,32.23
2019-01-04T07:02:35.194Z,29.30
2019-01-04T07:05:01.241Z,33.02
2019-01-04T07:07:27.249Z,35.25
2019-01-04T07:09:55.789Z,30.68
2019-01-04T07:12:21.975Z,31.93
2019-01-04T07:14:48.045Z,35.80
2019-01-04T07:17:14.163Z,31.65
2019-01-04T07:19:40.172Z,36.05
2019-01-04T07:22:06.434Z,31.50
2019-01-04T07:24:32.550Z,29.45
2019-01-04T07:26:58.622Z,59.55
2019-01-04T07:29:24.797Z,34.35
2019-01-04T07:31:50.982Z,32.42
2019-01-04T07:34:18.462Z,29.85
2019-01-04T07:36:45.830Z,27.02
2019-01-04T07:39:13.863Z,29.02
2019-01-04T07:41:39.901Z,28.65
2019-01-04T07:44:05.912Z,29.48
2019-01-04T07:46:31.954Z,29.52
2019-01-04T07:48:57.970Z,27.22
2019-01-04T07:51:24.024Z,28.27
2019-01-04T07:53:50.072Z,30.23
2019-01-04T07:56:16.153Z,32.50
2019-01-04T07:58:43.667Z,24.52
2019-01-04T08:01:09.752Z,27.58
2019-01-04T08:03:35.850Z,26.85
2019-01-04T08:06:02.094Z,29.52
2019-01-04T08:08:28.234Z,30.27
2019-01-04T08:10:54.904Z,28.40
2019-01-04T08:13:25.063Z,32.80
2019-01-04T08:15:51.145Z,36.40
2019-01-04T08:18:17.256Z,29.75
2019-01-04T08:20:43.279Z,30.00
2019-01-04T08:23:11.749Z,29.77
2019-01-04T08:25:37.905Z,25.95
2019-01-04T08:28:05.294Z,30.15
2019-01-04T08:30:31.365Z,26.80
2019-01-04T08:32:57.492Z,29.60
2019-01-04T08:35:23.531Z,27.05
2019-01-04T08:37:49.720Z,31.95
2019-01-04T08:40:15.737Z,33.92
2019-01-04T08:42:42.016Z,30.65
2019-01-04T08:45:08.317Z,27.13
2019-01-04T08:47:34.376Z,30.85
2019-01-04T08:50:00.476Z,31.07
2019-01-04T08:52:26.487Z,29.87
2019-01-04T08:54:52.532Z,30.30
2019-01-04T08:57:18.538Z,36.75
2019-01-04T08:59:44.562Z,32.80
2019-01-04T09:02:10.628Z,27.87
2019-01-04T09:04:36.731Z,29.02
2019-01-04T09:07:04.635Z,84.72
2019-01-04T09:09:30.671Z,177.40
2019-01-04T09:11:56.691Z,44.75
2019-01-04T09:14:22.734Z,89.05
2019-01-04T09:16:48.985Z,100.42
2019-01-04T09:19:14.999Z,51.15
2019-01-04T09:21:41.026Z,59.23
2019-01-04T09:24:07.073Z,52.48
2019-01-04T09:26:35.271Z,32.85
2019-01-04T09:29:01.336Z,24.72
2019-01-04T09:31:27.375Z,25.08
2019-01-04T09:33:57.149Z,25.92
2019-01-04T09:36:24.332Z,30.30
2019-01-04T09:38:50.562Z,27.30
2019-01-04T09:41:28.548Z,29.70
2019-01-04T09:43:54.587Z,26.10
2019-01-04T09:46:20.693Z,24.43
2019-01-04T09:48:47.050Z,26.20
2019-01-04T09:51:13.287Z,27.90
2019-01-04T09:53:39.355Z,28.12
2019-01-04T09:56:05.453Z,24.23
2019-01-04T09:58:31.692Z,29.00
2019-01-04T10:00:57.757Z,28.07
2019-01-04T10:03:23.845Z,34.78
2019-01-04T10:05:49.972Z,35.45
2019-01-04T10:08:16.084Z,30.65
2019-01-04T10:10:42.155Z,32.40
2019-01-04T10:13:08.235Z,33.08
2019-01-04T10:15:34.269Z,30.05
2019-01-04T10:18:02.383Z,30.70
2019-01-04T10:20:28.451Z,33.30
2019-01-04T10:22:54.477Z,34.27
2019-01-04T10:25:20.568Z,33.83
2019-01-04T10:27:46.597Z,34.53
2019-01-04T10:30:22.361Z,33.75
2019-01-04T10:32:48.372Z,31.60
2019-01-04T10:35:14.475Z,34.05
2019-01-04T10:37:40.860Z,31.95
2019-01-04T10:40:11.048Z,34.25
2019-01-04T10:42:34.976Z,30.95
2019-01-04T10:45:01.054Z,31.42
2019-01-04T10:47:27.245Z,30.60
2019-01-04T10:49:53.353Z,36.53
2019-01-04T10:52:19.419Z,29.05
2019-01-04T10:54:45.553Z,28.03
2019-01-04T10:57:11.600Z,27.00
2019-01-04T10:59:37.781Z,24.00
2019-01-04T11:02:03.954Z,34.97
2019-01-04T11:04:30.064Z,27.10
2019-01-04T11:06:56.400Z,20.17
2019-01-04T11:09:22.576Z,19.73
2019-01-04T11:11:50.098Z,21.43
2019-01-04T11:14:16.256Z,21.17
2019-01-04T11:16:44.821Z,21.90
2019-01-04T11:19:11.458Z,17.90
2019-01-04T11:21:39.317Z,20.23
2019-01-04T11:24:16.020Z,21.10
2019-01-04T11:26:46.828Z,16.40
2019-01-04T11:29:16.644Z,23.30
2019-01-04T11:32:13.144Z,20.17
2019-01-04T11:34:52.047Z,19.63
2019-01-04T11:37:34.118Z,18.47
2019-01-04T11:40:27.278Z,19.77
2019-01-04T11:43:12.224Z,21.97
2019-01-04T11:45:48.111Z,20.60
2019-01-04T11:48:24.585Z,18.93
2019-01-04T11:51:14.413Z,23.27
2019-01-04T11:53:40.548Z,21.27
2019-01-04T11:56:07.658Z,21.70
2019-01-04T11:58:34.084Z,24.17
2019-01-04T12:01:02.111Z,23.13
2019-01-04T12:03:29.171Z,24.80
2019-01-04T12:05:58.700Z,22.37
2019-01-04T12:08:24.772Z,21.43
2019-01-04T12:10:50.895Z,22.20
2019-01-04T12:13:16.977Z,21.20
2019-01-04T12:15:44.066Z,20.87
2019-01-04T12:18:10.263Z,26.13
2019-01-04T12:20:36.280Z,22.30
2019-01-04T12:23:02.338Z,15.70
2019-01-04T12:25:28.787Z,19.20
2019-01-04T12:27:54.845Z,18.90
2019-01-04T12:30:20.893Z,24.33
2019-01-04T12:32:46.944Z,17.10
2019-01-04T12:35:13.958Z,17.90
2019-01-04T12:37:40.276Z,21.70
2019-01-04T12:40:06.356Z,22.73
2019-01-04T12:42:32.881Z,21.00
2019-01-04T12:45:04.743Z,19.37
2019-01-04T12:47:33.094Z,24.60
2019-01-04T12:49:59.284Z,16.60
2019-01-04T12:52:25.348Z,21.63
2019-01-04T12:54:51.392Z,15.43
2019-01-04T12:57:17.474Z,15.13
2019-01-04T12:59:44.719Z,15.70
2019-01-04T13:02:10.769Z,11.07
2019-01-04T13:04:40.046Z,13.63
2019-01-04T13:07:06.849Z,15.07
2019-01-04T13:09:33.285Z,12.90
2019-01-04T13:12:00.495Z,14.63
2019-01-04T13:14:36.593Z,15.40
2019-01-04T13:17:02.926Z,12.67
2019-01-04T13:19:29.009Z,16.40
2019-01-04T13:21:55.078Z,17.53
2019-01-04T13:24:22.355Z,14.00
2019-01-04T13:26:48.516Z,12.60
2019-01-04T13:29:14.566Z,14.20
2019-01-04T13:31:40.596Z,16.40
2019-01-04T13:34:08.597Z,12.67
2019-01-04T13:36:34.686Z,17.07
2019-01-04T13:39:00.841Z,13.90
2019-01-04T13:41:26.880Z,15.67
2019-01-04T13:43:54.298Z,11.80
2019-01-04T13:46:20.490Z,13.57
2019-01-04T13:48:48.588Z,14.40
2019-01-04T13:51:15.691Z,14.50
2019-01-04T13:53:41.865Z,15.03
2019-01-04T13:56:07.978Z,15.17
2019-01-04T13:58:34.086Z,14.30
2019-01-04T14:01:01.234Z,15.83
2019-01-04T14:03:27.346Z,18.30
2019-01-04T14:05:53.403Z,15.00
2019-01-04T14:08:20.237Z,14.83
2019-01-04T14:10:48.905Z,14.93
2019-01-04T14:13:15.094Z,16.60
2019-01-04T14:15:41.146Z,16.10
2019-01-04T14:18:09.837Z,16.57
2019-01-04T14:20:35.864Z,15.40
2019-01-04T14:23:02.709Z,13.60
2019-01-04T14:25:28.760Z,11.90
2019-01-04T14:28:01.768Z,14.23
2019-01-04T14:30:27.767Z,9.57
2019-01-04T14:32:53.814Z,10.20
2019-01-04T14:35:19.908Z,11.27
2019-01-04T14:37:47.184Z,10.17
2019-01-04T14:40:13.353Z,14.87
2019-01-04T14:42:39.406Z,10.50
2019-01-04T14:45:06.483Z,11.07
2019-01-04T14:47:32.669Z,11.60
2019-01-04T14:49:58.681Z,10.47
2019-01-04T14:52:24.753Z,9.37
2019-01-04T14:54:50.882Z,10.90
2019-01-04T14:57:16.985Z,9.47
2019-01-04T14:59:43.043Z,9.83
2019-01-04T15:02:09.058Z,10.80
2019-01-04T15:04:35.253Z,10.03
2019-01-04T15:07:01.279Z,8.60
2019-01-04T15:09:27.345Z,9.03
2019-01-04T15:11:53.430Z,13.13
2019-01-04T15:14:19.470Z,11.50
2019-01-04T15:16:45.484Z,11.50
2019-01-04T15:19:11.516Z,10.87
2019-01-04T15:21:37.665Z,11.73
2019-01-04T15:24:03.764Z,9.20
2019-01-04T15:26:29.848Z,13.70
2019-01-04T15:28:58.344Z,11.63
2019-01-04T15:31:31.424Z,15.33
2019-01-04T15:33:57.514Z,12.97
2019-01-04T15:36:24.722Z,10.63
2019-01-04T15:38:53.544Z,14.93
2019-01-04T15:41:19.671Z,15.20
2019-01-04T15:43:47.137Z,13.40
2019-01-04T15:46:14.112Z,13.30
2019-01-04T15:48:40.180Z,14.27
2019-01-04T15:51:07.274Z,13.90
2019-01-04T15:53:33.352Z,14.67
2019-01-04T15:56:01.425Z,18.07
2019-01-04T15:58:27.452Z,16.63
2019-01-04T16:00:53.541Z,15.37
2019-01-04T16:03:19.602Z,12.90
2019-01-04T16:05:45.651Z,14.23
2019-01-04T16:08:12.674Z,18.17
2019-01-04T16:10:49.814Z,14.30
2019-01-04T16:13:17.241Z,16.63
2019-01-04T16:15:43.491Z,12.57
2019-01-04T16:18:09.497Z,14.87
2019-01-04T16:20:35.623Z,14.93
2019-01-04T16:23:02.020Z,14.37
2019-01-04T16:25:28.193Z,13.17
2019-01-04T16:27:55.319Z,14.10
2019-01-04T16:30:21.443Z,13.87
2019-01-04T16:32:47.562Z,14.73
2019-01-04T16:35:15.077Z,14.60
2019-01-04T16:37:43.208Z,14.50
2019-01-04T16:40:10.217Z,16.67
2019-01-04T16:42:36.401Z,17.27
2019-01-04T16:45:04.054Z,18.80
2019-01-04T16:47:30.077Z,18.23
2019-01-04T16:49:56.335Z,17.00
2019-01-04T16:52:22.478Z,19.70
2019-01-04T16:54:48.641Z,21.13
2019-01-04T16:57:14.684Z,21.77
2019-01-04T16:59:40.727Z,19.90
2019-01-04T17:02:10.392Z,21.40
2019-01-04T17:04:39.513Z,24.37
2019-01-04T17:07:05.611Z,19.00
2019-01-04T17:09:31.773Z,24.77
2019-01-04T17:12:00.160Z,19.97
2019-01-04T17:14:26.502Z,23.70
2019-01-04T17:16:52.551Z,27.47
2019-01-04T17:19:18.590Z,20.50
2019-01-04T17:21:44.699Z,21.27
2019-01-04T17:24:10.770Z,19.57
2019-01-04T17:26:37.975Z,21.13
2019-01-04T17:29:04.417Z,24.27
2019-01-04T17:31:30.614Z,27.27
2019-01-04T17:33:56.670Z,20.47
2019-01-04T17:36:23.239Z,28.13
2019-01-04T17:38:49.242Z,26.70
2019-01-04T17:41:15.288Z,20.50
2019-01-04T17:43:41.346Z,24.27
2019-01-04T17:46:09.299Z,23.57
2019-01-04T17:48:35.341Z,25.50
2019-01-04T17:51:03.448Z,22.43
2019-01-04T17:53:29.535Z,20.60
2019-01-04T17:55:55.966Z,19.53
2019-01-04T17:58:32.991Z,23.03
2019-01-04T18:00:59.492Z,20.80
2019-01-04T18:03:25.473Z,26.43
2019-01-04T18:05:51.551Z,23.73
2019-01-04T18:08:19.451Z,26.30
2019-01-04T18:10:45.620Z,24.27
2019-01-04T18:13:11.673Z,26.37
2019-01-04T18:15:37.788Z,26.23
2019-01-04T18:18:03.992Z,23.50
2019-01-04T18:20:30.076Z,29.23
2019-01-04T18:22:56.161Z,30.30
2019-01-04T18:25:22.529Z,22.17
2019-01-04T18:27:48.595Z,25.73
2019-01-04T18:30:17.695Z,25.07
2019-01-04T18:32:45.269Z,24.97
2019-01-04T18:35:12.723Z,26.80
2019-01-04T18:37:38.779Z,22.10
2019-01-04T18:40:07.208Z,25.33
2019-01-04T18:42:34.103Z,23.70
2019-01-04T18:45:00.269Z,23.60
2019-01-04T18:47:26.506Z,25.20
2019-01-04T18:49:52.608Z,25.77
2019-01-04T18:52:18.669Z,24.83
2019-01-04T18:54:45.160Z,36.87
2019-01-04T18:57:13.256Z,26.50
2019-01-04T18:59:39.286Z,33.73
2019-01-04T19:02:05.396Z,30.83
2019-01-04T19:04:37.007Z,23.87
2019-01-04T19:06:59.403Z,29.47
2019-01-04T19:09:26.483Z,26.30
2019-01-04T19:11:54.211Z,30.70
2019-01-04T19:14:21.312Z,31.40
2019-01-04T19:16:47.403Z,27.93
2019-01-04T19:19:13.507Z,28.37
2019-01-04T19:21:39.551Z,29.17
2019-01-04T19:24:05.614Z,28.60
2019-01-04T19:26:52.111Z,35.30
2019-01-04T19:29:19.702Z,27.97
2019-01-04T19:31:45.826Z,30.13
2019-01-04T19:34:15.196Z,30.83
2019-01-04T19:36:41.303Z,28.60
2019-01-04T19:39:10.624Z,30.77
2019-01-04T19:41:36.687Z,29.63
2019-01-04T19:44:02.783Z,31.23
2019-01-04T19:46:31.937Z,32.73
2019-01-04T19:49:00.131Z,25.60
2019-01-04T19:51:27.593Z,30.90
2019-01-04T19:53:53.714Z,38.93
2019-01-04T19:56:19.723Z,33.57
2019-01-04T19:58:50.766Z,29.83
2019-01-04T20:01:16.933Z,36.90
2019-01-04T20:03:43.037Z,34.43
2019-01-04T20:06:49.483Z,32.33
2019-01-04T20:09:47.024Z,29.77
2019-01-04T20:12:51.996Z,32.77
2019-01-04T20:15:46.178Z,36.63
2019-01-04T20:18:17.591Z,37.50
2019-01-04T20:21:00.747Z,37.70
2019-01-04T20:23:45.312Z,36.63
2019-01-04T20:26:31.372Z,36.33
2019-01-04T20:29:11.355Z,46.63
2019-01-04T20:31:42.103Z,37.90
2019-01-04T20:34:21.936Z,40.10
2019-01-04T20:36:52.667Z,42.33
2019-01-04T20:39:30.771Z,40.10
2019-01-04T20:41:58.846Z,39.67
2019-01-04T20:44:26.918Z,40.10
2019-01-04T20:47:11.427Z,41.23
2019-01-04T20:49:55.529Z,38.20
2019-01-04T20:52:25.507Z,39.80
2019-01-04T20:55:10.169Z,44.03
2019-01-04T20:57:41.892Z,46.60
2019-01-04T21:00:28.125Z,46.83
2019-01-04T21:02:56.173Z,42.93
2019-01-04T21:05:43.625Z,47.00
2019-01-04T21:08:14.945Z,44.87
2019-01-04T21:10:45.875Z,35.17
2019-01-04T21:13:25.786Z,41.17
2019-01-04T21:16:00.050Z,47.37
2019-01-04T21:18:39.314Z,43.27
2019-01-04T21:21:28.599Z,46.07
2019-01-04T21:24:09.907Z,41.03
2019-01-04T21:26:56.012Z,44.80
2019-01-04T21:29:36.228Z,40.10
2019-01-04T21:32:04.536Z,42.40
2019-01-04T21:34:41.246Z,45.37
2019-01-04T21:37:09.288Z,40.17
2019-01-04T21:39:56.046Z,43.80
2019-01-04T21:42:37.341Z,39.67
2019-01-04T21:45:18.011Z,38.23
2019-01-04T21:47:53.313Z,37.23
2019-01-04T21:50:23.557Z,37.97
2019-01-04T21:53:08.522Z,40.53
2019-01-04T21:55:52.780Z,44.77
2019-01-04T21:58:37.431Z,42.33
2019-01-04T22:01:28.190Z,40.67
2019-01-04T22:03:56.207Z,43.23
2019-01-04T22:06:40.790Z,42.93
2019-01-04T22:09:08.782Z,34.77
2019-01-04T22:11:42.520Z,43.27
2019-01-04T22:14:13.689Z,39.83
2019-01-04T22:16:44.231Z,40.90
2019-01-04T22:19:12.298Z,38.83
2019-01-04T22:21:47.569Z,35.43
2019-01-04T22:24:30.703Z,35.83
2019-01-04T22:26:59.862Z,35.57
2019-01-04T22:29:37.112Z,37.83
2019-01-04T22:32:18.431Z,36.67
2019-01-04T22:35:03.582Z,37.67
2019-01-04T22:37:34.034Z,35.73
2019-01-04T22:40:02.033Z,36.27
2019-01-04T22:42:46.223Z,36.80
2019-01-04T22:45:17.013Z,39.73
2019-01-04T22:47:47.805Z,31.63
2019-01-04T22:50:33.656Z,31.83
2019-01-04T22:53:07.477Z,32.10
2019-01-04T22:55:50.326Z,30.10
2019-01-04T22:58:23.791Z,27.77
2019-01-04T23:01:08.778Z,30.30
2019-01-04T23:03:42.725Z,33.20
2019-01-04T23:06:30.548Z,34.70
2019-01-04T23:09:14.883Z,25.88
2019-01-04T23:12:01.006Z,27.67
2019-01-04T23:14:29.982Z,29.50
2019-01-04T23:17:14.850Z,24.27
2019-01-04T23:19:45.598Z,28.57
2019-01-04T23:22:34.035Z,26.03
2019-01-04T23:25:04.971Z,26.53
2019-01-04T23:27:42.279Z,27.40
2019-01-04T23:30:16.066Z,29.20
2019-01-04T23:32:44.011Z,24.30
2019-01-04T23:35:26.853Z,25.07
2019-01-04T23:38:03.996Z,26.27
2019-01-04T23:40:38.046Z,23.83
2019-01-04T23:43:22.376Z,27.20
2019-01-04T23:46:07.695Z,25.20
2019-01-04T23:48:39.402Z,28.60
2019-01-04T23:51:16.724Z,27.50
2019-01-04T23:53:56.580Z,24.37
2019-01-04T23:56:30.398Z,29.03
2019-01-04T23:59:08.213Z,28.43
